Terminal Aerodrome Forecast
Issued by NWS

Home | Current Version | Previous Version | Text Only | Print | Product List | Glossary On
Versions: 1 2 3 4 5 6 7 8 9 10 11 12 13
000
FTAK31 PAJN 221700
TAFAPG
TAF
PAPG 221730Z 2218/2318 00000KT P6SM -SHRA FEW006 SCT015 BKN030
     FM222100 VRB03KT P6SM VCSH BKN035 BKN050
     FM230000 VRB05KT P6SM SCT050 BKN080
     FM231100 08006KT P6SM -RA SCT025 OVC050
     FM231500 11009KT P6SM -RA BKN025 OVC040
      AMD LTD TO CLD VIS AND WIND 2306/2315=

USA.gov is the U.S. government's official web portal to all federal, state and local government web resources and services.